ENZV/SVG METAR and TAF weather

Enter ICAO airport designator
Station Type Date Time Source
ENZV METAR 2023/01/30 10:20 UTC NOAA

ENZV 301020Z 34024G37KT 9999 VCSH SCT035 BKN049 05/M00 Q1000


Station Type Date Time Source
ENZV Decoded METAR 2023/01/30 10:20 UTC NOAA

Stavanger / Sola, Norway (ENZV) 58-53N 005-38E 9M
Jan 30, 2023 - 05:20 AM EST / 2023.01.30 1020 UTC
Wind: from the NNW (340 degrees) at 28 MPH (24 KT) gusting to 43 MPH (37 KT):0
Visibility: greater than 7 mile(s):0
Sky conditions: mostly cloudy
Weather: showers in the vicinity
Temperature: 41 F (5 C)
Dew Point: 32 F (0 C)
Relative Humidity: 70%
Pressure (altimeter): 29.53 in. Hg (1000 hPa)
ob: ENZV 301020Z 34024G37KT 9999 VCSH SCT035 BKN049 05/M00 Q1000
cycle: 10

Station Type Date Time Source
ENZV TAF 2023/01/30 06:57 UTC NOAA

TAF TAF ENZV 300500Z 3006/3106 32020KT 9999 FEW012TCU BKN025
TEMPO 3006/3018 32028G40KT
TEMPO 3006/3021 4000 SHRAGS BKN014CB
BECMG 3018/3020 34010KT
BECMG 3100/3102 VRB05KT
BECMG 3103/3106 16010KT 4000 RASN BKN012

Example: see airport list